createdAt,value
2022-09-30T00:00:53.224Z,41.60
2022-09-30T00:04:53.491Z,40.60
2022-09-30T00:08:41.507Z,39.50
2022-09-30T00:12:42.782Z,39.50
2022-09-30T00:16:45.323Z,38.60
2022-09-30T00:20:27.520Z,38.40
2022-09-30T00:23:49.838Z,42.70
2022-09-30T00:27:24.455Z,39.50
2022-09-30T00:31:11.345Z,40.10
2022-09-30T00:35:14.032Z,38.60
2022-09-30T00:39:09.269Z,36.80
2022-09-30T00:42:47.733Z,39.50
2022-09-30T00:47:02.082Z,39.60
2022-09-30T00:50:45.451Z,37.80
2022-09-30T00:54:56.367Z,39.90
2022-09-30T00:58:44.533Z,38.10
2022-09-30T01:02:26.950Z,39.40
2022-09-30T01:06:22.592Z,37.40
2022-09-30T01:10:18.362Z,37.10
2022-09-30T01:14:20.836Z,37.30
2022-09-30T01:18:24.072Z,39.10
2022-09-30T01:22:44.768Z,38.30
2022-09-30T01:26:51.359Z,39.50
2022-09-30T01:30:53.746Z,39.70
2022-09-30T01:35:14.267Z,40.30
2022-09-30T01:39:08.070Z,39.60
2022-09-30T01:43:01.300Z,40.40
2022-09-30T01:47:12.881Z,39.30
2022-09-30T01:51:11.003Z,38.00
2022-09-30T01:55:03.814Z,38.50
2022-09-30T01:59:02.909Z,37.70
2022-09-30T02:02:52.191Z,36.60
2022-09-30T02:06:50.654Z,39.00
2022-09-30T02:10:52.992Z,40.20
2022-09-30T02:14:57.563Z,35.20
2022-09-30T02:19:01.739Z,35.20
2022-09-30T02:22:46.600Z,35.80
2022-09-30T02:26:38.005Z,37.40
2022-09-30T02:30:29.195Z,36.70
2022-09-30T02:34:17.052Z,36.40
2022-09-30T02:38:15.016Z,34.50
2022-09-30T02:42:18.880Z,34.90
2022-09-30T02:46:25.179Z,34.10
2022-09-30T02:50:19.246Z,34.40
2022-09-30T02:54:30.885Z,33.70
2022-09-30T02:58:45.193Z,36.50
2022-09-30T03:02:46.610Z,34.60
2022-09-30T03:06:39.079Z,34.80
2022-09-30T03:10:41.491Z,34.50
2022-09-30T03:14:55.668Z,36.60
2022-09-30T03:18:36.207Z,35.70
2022-09-30T03:22:41.820Z,33.20
2022-09-30T03:26:53.358Z,33.30
2022-09-30T03:30:58.691Z,35.10
2022-09-30T03:35:09.484Z,35.70
2022-09-30T03:38:41.079Z,34.70
2022-09-30T03:42:51.285Z,37.00
2022-09-30T03:46:36.992Z,36.40
2022-09-30T03:50:39.464Z,38.10
2022-09-30T03:54:15.384Z,35.90
2022-09-30T03:57:57.069Z,37.50
2022-09-30T04:01:32.041Z,37.40
2022-09-30T04:05:35.782Z,37.60
2022-09-30T04:09:11.033Z,38.10
2022-09-30T04:13:02.179Z,37.10
2022-09-30T04:17:04.601Z,36.40
2022-09-30T04:21:01.218Z,36.50
2022-09-30T04:24:46.213Z,34.10
2022-09-30T04:28:04.042Z,35.80
2022-09-30T04:32:01.300Z,35.30
2022-09-30T04:35:56.127Z,35.10
2022-09-30T04:40:00.583Z,34.20
2022-09-30T04:43:44.599Z,33.10
2022-09-30T04:47:38.040Z,34.30
2022-09-30T04:51:40.370Z,34.80
2022-09-30T04:55:42.716Z,32.00
2022-09-30T04:59:44.169Z,31.80
2022-09-30T05:03:30.707Z,34.80
2022-09-30T05:07:33.070Z,34.90
2022-09-30T05:11:09.608Z,34.70
2022-09-30T05:14:57.199Z,34.60
2022-09-30T05:18:50.853Z,33.70
2022-09-30T05:22:52.220Z,31.30
2022-09-30T05:26:36.538Z,31.70
2022-09-30T05:30:12.863Z,33.10
2022-09-30T05:33:54.618Z,31.80
2022-09-30T05:38:00.359Z,32.20
2022-09-30T05:41:58.749Z,30.50
2022-09-30T05:46:01.115Z,31.80
2022-09-30T05:49:43.758Z,31.60
2022-09-30T05:53:46.309Z,32.50
2022-09-30T05:57:37.446Z,32.60
2022-09-30T06:01:34.398Z,36.10
2022-09-30T06:05:38.443Z,36.30
2022-09-30T06:09:06.877Z,40.10
2022-09-30T06:12:39.507Z,40.60
2022-09-30T06:16:07.690Z,41.00
2022-09-30T06:19:57.485Z,42.20
2022-09-30T06:23:41.104Z,47.00
2022-09-30T06:27:05.666Z,47.60
2022-09-30T06:30:39.977Z,48.30
2022-09-30T06:34:13.448Z,50.20
2022-09-30T06:37:47.323Z,46.80
2022-09-30T06:41:31.559Z,45.80
2022-09-30T06:45:32.129Z,42.90
2022-09-30T06:49:28.798Z,44.30
2022-09-30T06:53:22.871Z,46.60
2022-09-30T06:56:56.938Z,44.30
2022-09-30T07:00:49.743Z,41.60
2022-09-30T07:04:37.403Z,40.30
2022-09-30T07:08:23.184Z,40.70
2022-09-30T07:15:54.713Z,40.60
2022-09-30T07:19:30.898Z,39.70
2022-09-30T07:23:10.620Z,39.30
2022-09-30T07:27:13.370Z,40.30
2022-09-30T07:30:46.647Z,43.00
2022-09-30T07:34:49.147Z,41.90
2022-09-30T07:38:51.703Z,41.70
2022-09-30T07:42:43.251Z,40.50
2022-09-30T07:46:35.661Z,40.70
2022-09-30T07:50:19.994Z,40.30
2022-09-30T07:54:22.710Z,40.10
2022-09-30T07:58:10.606Z,39.80
2022-09-30T08:02:06.052Z,38.70
2022-09-30T08:05:31.485Z,39.00
2022-09-30T08:09:26.110Z,36.20
2022-09-30T08:13:22.943Z,37.00
2022-09-30T08:17:15.740Z,35.60
2022-09-30T08:20:57.984Z,34.00
2022-09-30T08:24:34.262Z,37.60
2022-09-30T08:28:26.534Z,34.40
2022-09-30T08:32:28.891Z,34.10
2022-09-30T08:35:57.510Z,32.50
2022-09-30T08:39:34.268Z,32.20
2022-09-30T08:43:21.745Z,30.80
2022-09-30T08:47:25.588Z,31.80
2022-09-30T08:51:40.307Z,28.80
2022-09-30T08:55:32.209Z,25.70
2022-09-30T08:59:40.299Z,26.30
2022-09-30T09:03:33.767Z,24.10
2022-09-30T09:07:36.617Z,23.60
2022-09-30T09:11:48.252Z,21.80
2022-09-30T09:15:50.360Z,23.50
2022-09-30T09:19:50.659Z,19.70
2022-09-30T09:23:37.170Z,17.20
2022-09-30T09:27:22.720Z,17.90
2022-09-30T09:31:20.671Z,18.30
2022-09-30T09:35:23.222Z,17.70
2022-09-30T09:39:25.701Z,17.10
2022-09-30T09:43:30.983Z,17.40
2022-09-30T09:47:45.284Z,17.30
2022-09-30T09:51:19.315Z,18.10
2022-09-30T09:55:04.152Z,16.20
2022-09-30T09:59:06.682Z,16.50
2022-09-30T10:03:24.579Z,14.20
2022-09-30T10:07:06.780Z,14.80
2022-09-30T10:10:43.815Z,13.90
2022-09-30T10:18:12.701Z,13.70
2022-09-30T10:22:06.076Z,13.00
2022-09-30T10:25:59.262Z,10.50
2022-09-30T10:30:05.390Z,11.80
2022-09-30T10:33:58.911Z,10.00
2022-09-30T10:37:45.746Z,10.90
2022-09-30T10:41:23.785Z,12.20
2022-09-30T10:44:45.387Z,12.80
2022-09-30T10:48:37.006Z,14.70
2022-09-30T10:52:18.235Z,15.80
2022-09-30T10:56:03.683Z,12.20
2022-09-30T10:59:32.834Z,9.00
2022-09-30T11:03:20.583Z,9.70
2022-09-30T11:07:05.359Z,9.80
2022-09-30T11:11:09.677Z,15.00
2022-09-30T11:14:46.302Z,16.30
2022-09-30T11:18:20.204Z,12.80
2022-09-30T11:22:03.669Z,11.20
2022-09-30T11:25:39.217Z,8.70
2022-09-30T11:29:37.105Z,10.30
2022-09-30T11:33:14.380Z,11.00
2022-09-30T11:37:17.470Z,9.90
2022-09-30T11:41:15.525Z,9.80
2022-09-30T11:44:41.430Z,9.00
2022-09-30T11:48:39.066Z,11.20
2022-09-30T11:52:23.330Z,9.60
2022-09-30T11:56:16.786Z,9.80
2022-09-30T12:00:08.412Z,12.00
2022-09-30T12:03:49.305Z,9.80
2022-09-30T12:07:54.499Z,9.30
2022-09-30T12:11:29.192Z,7.60
2022-09-30T12:15:15.265Z,8.30
2022-09-30T12:19:06.827Z,7.50
2022-09-30T12:22:28.630Z,7.70
2022-09-30T12:26:24.385Z,7.70
2022-09-30T12:30:37.278Z,9.40
2022-09-30T12:34:40.337Z,8.80
2022-09-30T12:38:41.207Z,7.90
2022-09-30T12:42:50.184Z,8.50
2022-09-30T12:47:09.601Z,7.90
2022-09-30T12:51:05.977Z,5.00
2022-09-30T12:54:39.611Z,7.90
2022-09-30T12:58:16.697Z,9.20
2022-09-30T13:02:14.415Z,11.80
2022-09-30T13:06:13.483Z,13.40
2022-09-30T13:10:05.167Z,12.40
2022-09-30T13:13:57.081Z,12.00
2022-09-30T13:17:49.335Z,9.60
2022-09-30T13:21:46.006Z,11.00
2022-09-30T13:25:47.972Z,11.50
2022-09-30T13:28:52.577Z,12.70
2022-09-30T13:32:50.983Z,13.20
2022-09-30T13:36:29.386Z,12.60
2022-09-30T13:40:11.766Z,9.60
2022-09-30T13:43:50.450Z,7.30
2022-09-30T13:47:25.555Z,6.80
2022-09-30T13:54:47.023Z,6.70
2022-09-30T13:58:38.808Z,8.70
2022-09-30T14:02:21.998Z,10.30
2022-09-30T14:06:06.312Z,10.00
2022-09-30T14:10:23.990Z,9.60
2022-09-30T14:14:02.265Z,10.20
2022-09-30T14:17:43.282Z,9.50
2022-09-30T14:21:19.717Z,9.20
2022-09-30T14:25:06.571Z,10.30
2022-09-30T14:29:06.102Z,7.90
2022-09-30T14:33:01.467Z,8.90
2022-09-30T14:36:47.510Z,7.60
2022-09-30T14:40:13.697Z,7.40
2022-09-30T14:43:42.448Z,7.80
2022-09-30T14:47:36.911Z,7.80
2022-09-30T14:51:07.956Z,6.40
2022-09-30T14:55:22.643Z,6.60
2022-09-30T14:58:47.188Z,6.20
2022-09-30T15:02:33.243Z,6.00
2022-09-30T15:05:58.406Z,6.60
2022-09-30T15:09:41.204Z,7.70
2022-09-30T15:13:43.767Z,6.90
2022-09-30T15:17:35.518Z,7.00
2022-09-30T15:21:20.995Z,7.60
2022-09-30T15:24:55.552Z,7.10
2022-09-30T15:28:57.469Z,7.40
2022-09-30T15:32:44.139Z,6.60
2022-09-30T15:36:26.174Z,6.70
2022-09-30T15:40:27.110Z,6.90
2022-09-30T15:44:35.297Z,6.80
2022-09-30T15:48:42.286Z,6.30
2022-09-30T15:52:57.074Z,6.00
2022-09-30T15:56:51.257Z,6.60
2022-09-30T16:00:47.112Z,5.70
2022-09-30T16:04:55.283Z,5.70
2022-09-30T16:08:57.831Z,6.80
2022-09-30T16:13:00.184Z,6.60
2022-09-30T16:16:56.759Z,7.50
2022-09-30T16:20:57.061Z,7.70
2022-09-30T16:25:02.204Z,9.20
2022-09-30T16:29:13.704Z,10.00
2022-09-30T16:33:07.052Z,10.40
2022-09-30T16:37:09.446Z,11.90
2022-09-30T16:41:08.327Z,14.50
2022-09-30T16:45:03.807Z,15.80
2022-09-30T16:48:49.341Z,17.20
2022-09-30T16:52:46.766Z,15.10
2022-09-30T16:56:49.153Z,12.70
2022-09-30T17:00:37.231Z,12.50
2022-09-30T17:04:38.573Z,12.10
2022-09-30T17:08:41.134Z,12.30
2022-09-30T17:12:43.776Z,12.60
2022-09-30T17:16:44.203Z,15.80
2022-09-30T17:20:46.762Z,20.80
2022-09-30T17:24:41.492Z,21.30
2022-09-30T17:28:06.247Z,21.10
2022-09-30T17:32:00.686Z,20.20
2022-09-30T17:35:40.006Z,21.90
2022-09-30T17:39:25.326Z,22.30
2022-09-30T17:43:27.492Z,21.30
2022-09-30T17:47:22.676Z,21.40
2022-09-30T17:51:08.605Z,21.60
2022-09-30T17:54:52.419Z,24.90
2022-09-30T17:58:34.268Z,29.50
2022-09-30T18:02:18.304Z,35.20
2022-09-30T18:06:15.496Z,34.60
2022-09-30T18:10:07.783Z,37.30
2022-09-30T18:14:00.072Z,36.90
2022-09-30T18:17:26.270Z,38.60
2022-09-30T18:20:51.698Z,35.70
2022-09-30T18:24:44.373Z,36.80
2022-09-30T18:28:46.839Z,36.90
2022-09-30T18:32:21.862Z,35.80
2022-09-30T18:35:44.658Z,37.40
2022-09-30T18:39:05.965Z,39.70
2022-09-30T18:43:08.450Z,37.80
2022-09-30T18:46:53.967Z,40.90
2022-09-30T18:50:26.663Z,36.20
2022-09-30T18:54:22.123Z,40.20
2022-09-30T18:58:15.745Z,36.70
2022-09-30T19:02:08.159Z,34.30
2022-09-30T19:05:51.499Z,38.20
2022-09-30T19:09:53.840Z,36.30
2022-09-30T19:13:49.137Z,38.20
2022-09-30T19:17:34.740Z,36.60
2022-09-30T19:21:30.206Z,39.10
2022-09-30T19:25:25.552Z,37.40
2022-09-30T19:29:25.771Z,36.30
2022-09-30T19:33:28.420Z,36.80
2022-09-30T19:37:27.582Z,39.00
2022-09-30T19:41:29.371Z,37.50
2022-09-30T19:45:31.978Z,34.40
2022-09-30T19:49:23.390Z,37.40
2022-09-30T19:53:30.650Z,39.90
2022-09-30T19:57:20.584Z,38.60
2022-09-30T20:01:00.938Z,39.40
2022-09-30T20:04:42.503Z,37.60
2022-09-30T20:08:25.847Z,40.50
2022-09-30T20:12:05.366Z,37.80
2022-09-30T20:16:10.639Z,41.50
2022-09-30T20:20:03.181Z,36.90
2022-09-30T20:24:01.706Z,38.50
2022-09-30T20:28:04.204Z,36.20
2022-09-30T20:31:58.575Z,40.70
2022-09-30T20:35:45.222Z,39.60
2022-09-30T20:39:47.857Z,37.30
2022-09-30T20:43:40.253Z,37.10
2022-09-30T20:47:42.885Z,37.10
2022-09-30T20:51:28.935Z,34.50
2022-09-30T20:55:32.282Z,35.80
2022-09-30T20:59:23.007Z,33.30
2022-09-30T21:03:08.517Z,37.60
2022-09-30T21:07:00.905Z,32.80
2022-09-30T21:10:31.264Z,35.00
2022-09-30T21:14:16.623Z,34.20
2022-09-30T21:18:21.908Z,36.10
2022-09-30T21:22:17.728Z,36.70
2022-09-30T21:26:16.072Z,34.50
2022-09-30T21:30:02.020Z,34.80
2022-09-30T21:33:48.462Z,32.60
2022-09-30T21:37:52.141Z,33.70
2022-09-30T21:41:58.961Z,32.60
2022-09-30T21:46:02.855Z,33.00
2022-09-30T21:49:52.708Z,33.00
2022-09-30T21:53:47.488Z,32.20
2022-09-30T21:57:25.658Z,32.30
2022-09-30T22:01:21.767Z,30.90
2022-09-30T22:05:25.668Z,32.90
2022-09-30T22:09:14.716Z,30.90
2022-09-30T22:12:51.562Z,32.50
2022-09-30T22:16:57.435Z,32.90
2022-09-30T22:20:45.892Z,30.60
2022-09-30T22:24:28.365Z,32.30
2022-09-30T22:28:25.868Z,36.30
2022-09-30T22:32:12.253Z,33.10
2022-09-30T22:36:15.147Z,33.20
2022-09-30T22:40:01.391Z,32.70
2022-09-30T22:43:52.927Z,32.90
2022-09-30T22:47:47.044Z,34.30
2022-09-30T22:51:40.939Z,32.20
2022-09-30T22:55:29.088Z,31.90
2022-09-30T22:59:14.584Z,32.20
2022-09-30T23:03:18.667Z,31.90
2022-09-30T23:07:05.470Z,30.40
2022-09-30T23:10:49.947Z,31.20
2022-09-30T23:14:53.675Z,29.70
2022-09-30T23:18:47.718Z,29.90
2022-09-30T23:26:04.958Z,31.60
2022-09-30T23:30:09.021Z,29.30
2022-09-30T23:34:08.698Z,31.40
2022-09-30T23:37:52.391Z,30.60
2022-09-30T23:41:46.343Z,31.20
2022-09-30T23:45:35.877Z,29.90
2022-09-30T23:49:22.124Z,28.80
2022-09-30T23:52:58.960Z,28.50
2022-09-30T23:56:56.676Z,30.30
